createdAt,value
2018-07-10T02:41:10.603Z,18.70
2018-07-10T02:56:32.442Z,18.10
2018-07-10T02:59:04.716Z,18.10
2018-07-10T03:01:35.598Z,18.00
2018-07-10T03:04:06.665Z,18.00
2018-07-10T03:06:37.600Z,17.90
2018-07-10T03:09:08.543Z,17.90
2018-07-10T03:11:39.438Z,17.80
2018-07-10T03:14:11.112Z,17.80
2018-07-10T03:16:42.102Z,17.80
2018-07-10T03:19:13.403Z,17.80
2018-07-10T03:21:44.411Z,17.70
2018-07-10T03:24:15.736Z,17.70
2018-07-10T03:26:46.670Z,17.70
2018-07-10T03:29:17.683Z,17.70
2018-07-10T03:31:48.483Z,17.80
2018-07-10T03:34:19.358Z,17.80
2018-07-10T03:36:50.227Z,17.70
2018-07-10T03:39:21.124Z,17.70
2018-07-10T03:41:52.079Z,17.70
2018-07-10T03:44:22.890Z,17.80
2018-07-10T03:46:53.784Z,17.80
2018-07-10T03:49:24.679Z,17.90
2018-07-10T03:51:56.374Z,18.10
2018-07-10T03:54:27.316Z,18.50
2018-07-10T03:56:58.354Z,18.90
2018-07-10T03:59:34.949Z,19.00
2018-07-10T04:02:05.904Z,19.20
2018-07-10T04:04:37.127Z,19.30
2018-07-10T04:07:08.150Z,19.20
2018-07-10T04:09:39.068Z,19.20
2018-07-10T04:12:09.872Z,19.10
2018-07-10T04:14:41.398Z,18.90
2018-07-10T04:19:42.756Z,18.80
2018-07-10T04:24:48.212Z,18.80
2018-07-10T04:27:31.234Z,18.80
2018-07-10T04:30:22.652Z,18.80
2018-07-10T04:32:53.646Z,18.80
2018-07-10T04:35:28.468Z,18.70
2018-07-10T04:37:59.372Z,18.80
2018-07-10T04:43:07.369Z,18.70
2018-07-10T04:45:46.488Z,18.90
2018-07-10T04:48:38.598Z,19.00
2018-07-10T04:51:22.607Z,18.90
2018-07-10T04:54:01.364Z,19.10
2018-07-10T04:56:32.279Z,19.10
2018-07-10T04:59:03.252Z,19.00
2018-07-10T05:01:36.013Z,19.10
2018-07-10T05:04:07.077Z,19.20
2018-07-10T05:06:38.514Z,19.30
2018-07-10T05:09:09.528Z,19.40
2018-07-10T05:11:43.752Z,19.40
2018-07-10T05:14:14.606Z,19.40
2018-07-10T05:16:45.539Z,19.70
2018-07-10T05:19:16.790Z,20.40
2018-07-10T05:21:47.843Z,21.00
2018-07-10T05:24:19.780Z,21.70
2018-07-10T05:26:50.818Z,22.50
2018-07-10T05:29:21.787Z,23.20
2018-07-10T05:31:52.837Z,23.60
2018-07-10T05:34:23.837Z,23.90
2018-07-10T05:36:55.525Z,24.40
2018-07-10T05:39:26.560Z,25.40
2018-07-10T05:41:57.524Z,26.70
2018-07-10T05:44:28.720Z,27.20
2018-07-10T05:47:03.461Z,27.50
2018-07-10T05:49:40.116Z,27.40
2018-07-10T05:52:12.836Z,26.50
2018-07-10T05:54:45.960Z,25.80
2018-07-10T05:57:17.059Z,25.60
2018-07-10T05:59:48.039Z,25.30
2018-07-10T06:02:18.975Z,25.40
2018-07-10T06:04:50.146Z,25.10
2018-07-10T06:07:21.317Z,25.20
2018-07-10T06:09:53.112Z,25.20
2018-07-10T06:12:26.046Z,25.30
2018-07-10T06:15:04.896Z,26.30
2018-07-10T06:17:36.078Z,27.80
2018-07-10T06:22:39.671Z,29.20
2018-07-10T06:25:23.253Z,30.70
2018-07-10T06:28:22.301Z,31.60
2018-07-10T06:31:00.297Z,33.10
2018-07-10T06:33:34.926Z,33.80
2018-07-10T06:39:22.882Z,33.60
2018-07-10T06:47:42.195Z,33.80
2018-07-10T06:50:13.109Z,34.10
2018-07-10T06:52:44.907Z,34.70
2018-07-10T06:55:20.943Z,35.60
2018-07-10T07:00:51.152Z,35.70
2018-07-10T07:03:34.200Z,35.70
2018-07-10T07:06:18.912Z,36.40
2018-07-10T07:08:52.253Z,36.70
2018-07-10T07:24:32.112Z,37.40
2018-07-10T07:30:06.052Z,40.00
2018-07-10T07:32:43.984Z,40.30
2018-07-10T07:35:16.357Z,40.30
2018-07-10T07:38:06.736Z,39.60
2018-07-10T07:42:15.139Z,39.60
2018-07-10T07:45:21.265Z,39.20
2018-07-10T07:48:23.280Z,39.50
2018-07-10T07:51:53.404Z,39.70
2018-07-10T11:57:10.753Z,29.70
2018-07-10T11:59:45.381Z,29.10
2018-07-10T12:02:16.197Z,29.20
2018-07-10T12:04:49.939Z,29.70
2018-07-10T12:07:28.139Z,30.50
2018-07-10T12:10:16.663Z,31.50
2018-07-10T13:34:42.851Z,27.80
2018-07-10T13:37:13.739Z,27.30
2018-07-10T13:39:45.190Z,27.00
2018-07-10T13:42:16.084Z,26.90
2018-07-10T13:44:47.088Z,26.70
2018-07-10T13:47:17.973Z,26.40
2018-07-10T13:52:19.136Z,26.10
2018-07-10T13:54:50.166Z,26.10
2018-07-10T13:57:21.078Z,26.10
2018-07-10T13:59:51.965Z,26.00
2018-07-10T14:02:22.841Z,26.00
2018-07-10T14:04:53.917Z,26.10
2018-07-10T14:07:24.752Z,26.20
2018-07-10T14:09:55.625Z,26.20
2018-07-10T14:12:26.562Z,26.30
2018-07-10T14:14:57.428Z,26.30
2018-07-10T14:17:28.254Z,26.40
2018-07-10T14:20:00.440Z,26.30
2018-07-10T14:22:32.512Z,26.30
2018-07-10T14:25:03.502Z,26.30
2018-07-10T14:27:34.450Z,26.20
2018-07-10T14:30:05.466Z,26.20
2018-07-10T14:37:37.713Z,25.80
2018-07-10T14:40:08.612Z,25.90
2018-07-10T14:45:09.962Z,26.00
2018-07-10T14:50:11.054Z,26.10
2018-07-10T14:52:41.933Z,25.90
2018-07-10T14:55:12.996Z,25.90
2018-07-10T14:57:44.089Z,25.80
2018-07-10T15:00:15.036Z,25.70
2018-07-10T15:02:45.916Z,25.70
2018-07-10T15:07:47.034Z,25.80
2018-07-10T15:10:17.987Z,25.60
2018-07-10T15:12:48.850Z,25.50
2018-07-10T15:15:19.886Z,25.50
2018-07-10T15:17:57.554Z,25.40
2018-07-10T15:20:28.455Z,25.30
2018-07-10T15:22:59.874Z,25.30
2018-07-10T15:28:00.948Z,25.40
2018-07-10T15:30:31.796Z,25.40
2018-07-10T15:33:02.892Z,25.20
2018-07-10T15:35:33.842Z,25.20
2018-07-10T15:53:17.203Z,24.90
2018-07-10T15:56:17.101Z,24.60
2018-07-10T15:58:48.191Z,24.60
2018-07-10T16:01:22.379Z,24.60
2018-07-10T16:03:55.363Z,24.60
2018-07-10T16:06:29.362Z,24.50
2018-07-10T16:09:19.791Z,24.60
2018-07-10T16:11:56.118Z,24.60
2018-07-10T16:14:27.823Z,24.50
2018-07-10T16:16:59.380Z,24.40
2018-07-10T16:22:27.020Z,24.40
2018-07-10T16:25:05.248Z,24.40
2018-07-10T16:27:40.815Z,24.30
2018-07-10T16:30:13.502Z,24.30
2018-07-10T16:32:44.571Z,24.30
2018-07-10T16:35:15.744Z,24.20
2018-07-10T16:37:46.624Z,24.20
2018-07-10T16:40:17.746Z,24.10
2018-07-10T16:42:52.524Z,24.10
2018-07-10T16:45:36.051Z,24.10
2018-07-10T16:48:29.965Z,24.00
2018-07-10T16:51:17.332Z,23.90
2018-07-10T16:53:49.318Z,23.90
2018-07-10T17:01:20.976Z,23.70
2018-07-10T17:03:57.376Z,23.60
2018-07-10T17:06:28.571Z,23.60
2018-07-10T17:11:31.048Z,23.60
2018-07-10T17:14:01.950Z,23.60
2018-07-10T17:16:33.066Z,23.50
2018-07-10T17:19:04.001Z,23.50
2018-07-10T17:21:35.017Z,23.50
2018-07-10T17:24:06.200Z,23.40
2018-07-10T17:26:37.250Z,23.30
2018-07-10T17:31:42.994Z,23.20
2018-07-10T17:34:13.930Z,23.20
2018-07-10T17:36:45.013Z,23.20
2018-07-10T17:39:16.021Z,23.10
2018-07-10T17:41:48.062Z,23.10
2018-07-10T17:44:19.036Z,23.10
2018-07-10T17:46:50.035Z,23.00
2018-07-10T17:49:21.064Z,23.00
2018-07-10T17:51:52.210Z,23.00
2018-07-10T17:54:23.293Z,22.90
2018-07-10T17:56:54.417Z,22.90
2018-07-10T17:59:25.499Z,23.00
2018-07-10T18:04:26.834Z,22.90
2018-07-10T18:06:59.246Z,22.80
2018-07-10T18:09:30.135Z,22.80
2018-07-10T18:12:01.113Z,22.80
2018-07-10T18:14:32.254Z,22.80
2018-07-10T18:17:03.289Z,22.70
2018-07-10T18:19:34.467Z,22.70
2018-07-10T18:22:05.704Z,22.70
2018-07-10T18:24:37.073Z,22.60
2018-07-10T18:27:08.206Z,22.60
2018-07-10T18:29:39.245Z,22.50
2018-07-10T18:45:34.313Z,22.40
